createdAt,value
2019-01-28T17:14:38.922Z,126.73
2019-01-28T17:20:03.471Z,113.53
2019-01-28T17:22:47.728Z,122.70
2019-01-28T17:25:21.697Z,123.43
2019-01-28T17:27:54.892Z,131.20
2019-01-28T17:30:38.401Z,125.10
2019-01-28T17:33:12.064Z,116.50
2019-01-28T17:35:52.937Z,127.33
2019-01-28T17:38:24.629Z,119.97
2019-01-28T17:41:01.394Z,135.37
2019-01-28T17:43:33.869Z,135.60
2019-01-28T17:46:08.392Z,136.90
2019-01-28T17:48:40.385Z,126.20
2019-01-28T17:51:18.821Z,129.13
2019-01-28T17:53:57.492Z,145.83
2019-01-28T17:56:55.204Z,141.33
2019-01-28T18:02:44.577Z,131.63
2019-01-28T18:05:20.819Z,140.80
2019-01-28T18:36:05.654Z,153.20
2019-01-28T19:14:41.842Z,173.03
2019-01-28T19:55:28.700Z,166.33
2019-01-28T19:57:58.931Z,161.47
2019-01-28T20:20:59.327Z,159.47
2019-01-28T20:23:34.621Z,180.47
2019-01-28T20:30:03.558Z,164.47
2019-01-28T20:32:35.413Z,168.30
2019-01-28T20:38:51.416Z,171.90
2019-01-28T20:41:25.791Z,181.50
2019-01-28T20:44:14.102Z,175.93
2019-01-28T20:46:54.905Z,172.80
2019-01-28T20:50:03.576Z,186.37
2019-01-28T20:52:37.112Z,185.17
2019-01-28T20:55:27.782Z,180.50
2019-01-28T20:58:00.638Z,192.73
2019-01-28T21:11:27.504Z,183.50
2019-01-28T21:13:58.304Z,188.30
2019-01-28T21:20:07.700Z,172.63
2019-01-28T21:22:37.835Z,190.50
2019-01-28T21:28:06.897Z,185.17
2019-01-28T21:30:54.812Z,191.13
2019-01-28T21:41:20.020Z,169.80
2019-01-28T21:43:55.322Z,173.03
2019-01-28T21:50:00.891Z,169.53
2019-01-28T21:52:31.295Z,175.43
2019-01-28T21:55:03.972Z,179.87
2019-01-28T21:57:40.374Z,168.93
2019-01-28T22:00:14.149Z,176.50
2019-01-28T22:02:47.408Z,172.67
2019-01-28T22:05:24.922Z,153.60
2019-01-28T22:07:57.499Z,163.10
2019-01-28T22:10:30.321Z,176.17
2019-01-28T22:13:08.566Z,169.00
2019-01-28T22:15:47.162Z,159.10
2019-01-28T22:18:17.633Z,165.07
2019-01-28T22:21:00.480Z,164.63
2019-01-28T22:23:38.850Z,167.10
2019-01-28T22:26:36.540Z,166.43
2019-01-28T22:29:13.685Z,164.47
2019-01-28T22:32:18.135Z,181.47
2019-01-28T22:34:51.937Z,170.60
2019-01-28T22:37:37.573Z,170.60
2019-01-28T22:40:16.166Z,169.53
2019-01-28T22:42:51.379Z,179.90
2019-01-28T22:48:27.782Z,183.87
2019-01-28T22:51:03.411Z,173.37
2019-01-28T22:53:39.574Z,186.67
2019-01-28T22:56:14.010Z,174.33
2019-01-28T22:58:58.034Z,199.50
2019-01-28T23:01:31.520Z,210.50
2019-01-28T23:04:23.065Z,188.67
2019-01-28T23:06:55.366Z,194.57
2019-01-28T23:09:25.966Z,175.30
2019-01-28T23:12:04.892Z,164.33
2019-01-28T23:14:35.123Z,196.53
2019-01-28T23:17:05.096Z,164.57
2019-01-28T23:19:41.413Z,174.00
2019-01-28T23:22:21.388Z,176.87
2019-01-28T23:25:03.620Z,181.17
2019-01-28T23:30:25.810Z,192.20
2019-01-28T23:33:02.684Z,178.03
2019-01-28T23:35:43.839Z,194.83
2019-01-28T23:38:16.689Z,188.37
2019-01-28T23:43:40.880Z,191.13
2019-01-28T23:46:19.911Z,194.77
2019-01-28T23:48:55.622Z,193.27
2019-01-28T23:51:29.239Z,179.27
2019-01-28T23:54:07.912Z,204.73
2019-01-28T23:56:40.356Z,186.30
2019-01-28T23:59:22.584Z,200.47
